LFKF/FSC METAR and TAF weather

Enter ICAO airport designator
Station Type Date Time Source
LFKF METAR 2021/04/17 03:00 UTC NOAA

LFKF 170300Z AUTO 05006KT CAVOK 07/05 Q1012 TEMPO SHRA SCT030CB BKN060


Station Type Date Time Source
LFKF Decoded METAR 2021/04/17 03:00 UTC NOAA

Figari, France (LFKF) 41-30N 009-06E 23M
Apr 16, 2021 - 11:00 PM EDT / 2021.04.17 0300 UTC
Wind: from the NE (050 degrees) at 7 MPH (6 KT):0
Visibility: greater than 7 mile(s):0
Weather: Cumulonimbus clouds observed
Temperature: 44 F (7 C)
Dew Point: 41 F (5 C)
Relative Humidity: 87%
Pressure (altimeter): 29.88 in. Hg (1012 hPa)
ob: LFKF 170300Z AUTO 05006KT CAVOK 07/05 Q1012 TEMPO SHRA SCT030CB BKN060
cycle: 3

Station Type Date Time Source
LFKF TAF 2021/04/17 03:42 UTC NOAA

TAF TAF LFKF 170200Z 1703/1803 07012KT 9999 FEW030 BKN070
TEMPO 1703/1803 SCT030TCU PROB40
TEMPO 1703/1715 SHRA SCT030CB BKN060
BECMG 1715/1718 VRB03KT

Example: see airport list